sensor_id;sensor_type;location;lat;lon;timestamp;P1;durP1;ratioP1;P2;durP2;ratioP2
13753;SDS011;6948;51.216;6.778;2022-09-13T00:00:06;5.30;;;3.73;;
13753;SDS011;6948;51.216;6.778;2022-09-13T00:02:33;3.83;;;3.40;;
13753;SDS011;6948;51.216;6.778;2022-09-13T00:04:58;5.70;;;3.70;;
13753;SDS011;6948;51.216;6.778;2022-09-13T00:07:24;4.57;;;3.90;;
13753;SDS011;6948;51.216;6.778;2022-09-13T00:09:50;5.27;;;3.87;;
13753;SDS011;6948;51.216;6.778;2022-09-13T00:12:16;4.50;;;4.10;;
13753;SDS011;6948;51.216;6.778;2022-09-13T00:14:42;4.93;;;4.00;;
13753;SDS011;6948;51.216;6.778;2022-09-13T00:17:08;5.63;;;4.07;;
13753;SDS011;6948;51.216;6.778;2022-09-13T00:19:34;6.40;;;4.10;;
13753;SDS011;6948;51.216;6.778;2022-09-13T00:22:00;5.27;;;3.90;;
13753;SDS011;6948;51.216;6.778;2022-09-13T00:24:26;4.57;;;3.70;;
13753;SDS011;6948;51.216;6.778;2022-09-13T00:26:52;5.50;;;4.00;;
13753;SDS011;6948;51.216;6.778;2022-09-13T00:29:18;6.90;;;3.70;;
13753;SDS011;6948;51.216;6.778;2022-09-13T00:31:44;6.13;;;4.37;;
13753;SDS011;6948;51.216;6.778;2022-09-13T00:34:11;5.93;;;3.83;;
13753;SDS011;6948;51.216;6.778;2022-09-13T00:36:37;4.80;;;3.77;;
13753;SDS011;6948;51.216;6.778;2022-09-13T00:39:03;7.80;;;3.93;;
13753;SDS011;6948;51.216;6.778;2022-09-13T00:41:29;4.37;;;3.90;;
13753;SDS011;6948;51.216;6.778;2022-09-13T00:43:56;8.87;;;4.20;;
13753;SDS011;6948;51.216;6.778;2022-09-13T00:46:24;4.17;;;3.77;;
13753;SDS011;6948;51.216;6.778;2022-09-13T00:48:54;5.53;;;3.87;;
13753;SDS011;6948;51.216;6.778;2022-09-13T00:51:21;4.60;;;4.10;;
13753;SDS011;6948;51.216;6.778;2022-09-13T00:53:48;5.33;;;3.87;;
13753;SDS011;6948;51.216;6.778;2022-09-13T00:56:19;5.00;;;3.80;;
13753;SDS011;6948;51.216;6.778;2022-09-13T00:58:49;4.37;;;3.90;;
13753;SDS011;6948;51.216;6.778;2022-09-13T01:01:17;6.37;;;3.57;;
13753;SDS011;6948;51.216;6.778;2022-09-13T01:03:44;6.57;;;4.10;;
13753;SDS011;6948;51.216;6.778;2022-09-13T01:06:13;4.87;;;4.17;;
13753;SDS011;6948;51.216;6.778;2022-09-13T01:08:41;5.10;;;3.80;;
13753;SDS011;6948;51.216;6.778;2022-09-13T01:11:09;4.43;;;3.97;;
13753;SDS011;6948;51.216;6.778;2022-09-13T01:13:36;4.30;;;3.90;;
13753;SDS011;6948;51.216;6.778;2022-09-13T01:16:03;4.47;;;3.77;;
13753;SDS011;6948;51.216;6.778;2022-09-13T01:18:29;6.20;;;4.20;;
13753;SDS011;6948;51.216;6.778;2022-09-13T01:26:31;4.90;;;3.97;;
13753;SDS011;6948;51.216;6.778;2022-09-13T01:47:56;6.20;;;5.53;;
13753;SDS011;6948;51.216;6.778;2022-09-13T01:50:35;5.50;;;5.00;;
13753;SDS011;6948;51.216;6.778;2022-09-13T01:55:42;5.77;;;5.23;;
13753;SDS011;6948;51.216;6.778;2022-09-13T02:03:30;4.80;;;4.30;;
13753;SDS011;6948;51.216;6.778;2022-09-13T02:05:59;4.67;;;4.20;;
13753;SDS011;6948;51.216;6.778;2022-09-13T02:11:13;6.20;;;4.40;;
13753;SDS011;6948;51.216;6.778;2022-09-13T02:13:42;5.20;;;4.23;;
13753;SDS011;6948;51.216;6.778;2022-09-13T02:16:12;4.37;;;3.97;;
13753;SDS011;6948;51.216;6.778;2022-09-13T02:18:41;4.50;;;4.10;;
13753;SDS011;6948;51.216;6.778;2022-09-13T02:21:10;4.37;;;3.97;;
13753;SDS011;6948;51.216;6.778;2022-09-13T02:23:43;5.70;;;4.53;;
13753;SDS011;6948;51.216;6.778;2022-09-13T02:26:11;7.13;;;4.60;;
13753;SDS011;6948;51.216;6.778;2022-09-13T02:28:40;4.80;;;3.90;;
13753;SDS011;6948;51.216;6.778;2022-09-13T02:31:08;6.80;;;4.27;;
13753;SDS011;6948;51.216;6.778;2022-09-13T02:33:36;5.07;;;4.57;;
13753;SDS011;6948;51.216;6.778;2022-09-13T02:36:05;6.13;;;4.70;;
13753;SDS011;6948;51.216;6.778;2022-09-13T02:38:34;6.23;;;4.40;;
13753;SDS011;6948;51.216;6.778;2022-09-13T02:41:05;8.10;;;4.87;;
13753;SDS011;6948;51.216;6.778;2022-09-13T02:43:36;5.77;;;4.90;;
13753;SDS011;6948;51.216;6.778;2022-09-13T02:48:57;5.10;;;4.60;;
13753;SDS011;6948;51.216;6.778;2022-09-13T02:54:15;8.03;;;4.47;;
13753;SDS011;6948;51.216;6.778;2022-09-13T02:56:47;4.70;;;4.23;;
13753;SDS011;6948;51.216;6.778;2022-09-13T02:59:15;4.33;;;3.93;;
13753;SDS011;6948;51.216;6.778;2022-09-13T03:01:44;4.87;;;4.00;;
13753;SDS011;6948;51.216;6.778;2022-09-13T03:04:11;4.70;;;4.20;;
13753;SDS011;6948;51.216;6.778;2022-09-13T03:06:38;4.97;;;4.30;;
13753;SDS011;6948;51.216;6.778;2022-09-13T03:09:05;6.57;;;4.50;;
13753;SDS011;6948;51.216;6.778;2022-09-13T03:25:25;5.63;;;4.80;;
13753;SDS011;6948;51.216;6.778;2022-09-13T03:27:52;5.97;;;4.80;;
13753;SDS011;6948;51.216;6.778;2022-09-13T03:30:20;6.90;;;4.67;;
13753;SDS011;6948;51.216;6.778;2022-09-13T03:38:27;5.20;;;4.70;;
13753;SDS011;6948;51.216;6.778;2022-09-13T03:40:56;6.27;;;4.77;;
13753;SDS011;6948;51.216;6.778;2022-09-13T03:43:28;5.87;;;5.07;;
13753;SDS011;6948;51.216;6.778;2022-09-13T03:45:59;6.10;;;5.03;;
13753;SDS011;6948;51.216;6.778;2022-09-13T03:48:29;6.77;;;5.30;;
13753;SDS011;6948;51.216;6.778;2022-09-13T03:50:55;8.13;;;5.70;;
13753;SDS011;6948;51.216;6.778;2022-09-13T03:53:22;6.60;;;5.17;;
13753;SDS011;6948;51.216;6.778;2022-09-13T03:55:49;6.97;;;5.70;;
13753;SDS011;6948;51.216;6.778;2022-09-13T03:58:17;6.37;;;5.43;;
13753;SDS011;6948;51.216;6.778;2022-09-13T04:00:43;7.07;;;5.70;;
13753;SDS011;6948;51.216;6.778;2022-09-13T04:03:10;9.07;;;5.90;;
13753;SDS011;6948;51.216;6.778;2022-09-13T04:05:36;6.93;;;5.80;;
13753;SDS011;6948;51.216;6.778;2022-09-13T04:08:03;6.53;;;5.60;;
13753;SDS011;6948;51.216;6.778;2022-09-13T04:10:30;6.37;;;5.60;;
13753;SDS011;6948;51.216;6.778;2022-09-13T04:12:57;8.20;;;6.13;;
13753;SDS011;6948;51.216;6.778;2022-09-13T04:15:24;8.97;;;5.93;;
13753;SDS011;6948;51.216;6.778;2022-09-13T04:17:50;7.20;;;5.40;;
13753;SDS011;6948;51.216;6.778;2022-09-13T04:20:16;6.90;;;5.37;;
13753;SDS011;6948;51.216;6.778;2022-09-13T04:22:43;10.87;;;5.60;;
13753;SDS011;6948;51.216;6.778;2022-09-13T04:25:09;7.10;;;5.80;;
13753;SDS011;6948;51.216;6.778;2022-09-13T04:27:35;10.93;;;6.30;;
13753;SDS011;6948;51.216;6.778;2022-09-13T04:30:01;7.70;;;5.90;;
13753;SDS011;6948;51.216;6.778;2022-09-13T04:32:27;6.53;;;5.67;;
13753;SDS011;6948;51.216;6.778;2022-09-13T04:34:53;9.13;;;5.80;;
13753;SDS011;6948;51.216;6.778;2022-09-13T04:37:19;7.77;;;6.00;;
13753;SDS011;6948;51.216;6.778;2022-09-13T04:39:45;7.47;;;6.03;;
13753;SDS011;6948;51.216;6.778;2022-09-13T04:42:14;7.40;;;6.10;;
13753;SDS011;6948;51.216;6.778;2022-09-13T04:44:40;8.37;;;5.80;;
13753;SDS011;6948;51.216;6.778;2022-09-13T04:47:07;13.40;;;6.20;;
13753;SDS011;6948;51.216;6.778;2022-09-13T04:49:33;7.43;;;5.43;;
13753;SDS011;6948;51.216;6.778;2022-09-13T04:51:59;6.53;;;5.93;;
13753;SDS011;6948;51.216;6.778;2022-09-13T04:54:25;7.30;;;6.60;;
13753;SDS011;6948;51.216;6.778;2022-09-13T04:56:51;7.33;;;6.30;;
13753;SDS011;6948;51.216;6.778;2022-09-13T04:59:19;7.23;;;6.10;;
13753;SDS011;6948;51.216;6.778;2022-09-13T05:01:45;7.17;;;6.47;;
13753;SDS011;6948;51.216;6.778;2022-09-13T05:04:11;8.00;;;6.30;;
13753;SDS011;6948;51.216;6.778;2022-09-13T05:06:37;7.73;;;6.07;;
13753;SDS011;6948;51.216;6.778;2022-09-13T05:09:03;7.77;;;6.03;;
13753;SDS011;6948;51.216;6.778;2022-09-13T05:11:30;7.87;;;6.60;;
13753;SDS011;6948;51.216;6.778;2022-09-13T05:13:57;6.57;;;5.97;;
13753;SDS011;6948;51.216;6.778;2022-09-13T05:16:24;7.27;;;6.47;;
13753;SDS011;6948;51.216;6.778;2022-09-13T05:18:51;7.70;;;6.00;;
13753;SDS011;6948;51.216;6.778;2022-09-13T05:21:17;8.47;;;6.07;;
13753;SDS011;6948;51.216;6.778;2022-09-13T05:23:47;7.63;;;6.30;;
13753;SDS011;6948;51.216;6.778;2022-09-13T05:26:14;8.87;;;6.73;;
13753;SDS011;6948;51.216;6.778;2022-09-13T05:28:40;7.83;;;6.73;;
13753;SDS011;6948;51.216;6.778;2022-09-13T05:31:09;8.77;;;6.70;;
13753;SDS011;6948;51.216;6.778;2022-09-13T05:33:37;7.10;;;6.33;;
13753;SDS011;6948;51.216;6.778;2022-09-13T05:36:04;8.27;;;6.70;;
13753;SDS011;6948;51.216;6.778;2022-09-13T05:38:30;8.40;;;6.47;;
13753;SDS011;6948;51.216;6.778;2022-09-13T05:40:57;6.87;;;6.10;;
13753;SDS011;6948;51.216;6.778;2022-09-13T05:43:24;10.50;;;6.63;;
13753;SDS011;6948;51.216;6.778;2022-09-13T05:45:50;8.30;;;6.43;;
13753;SDS011;6948;51.216;6.778;2022-09-13T05:48:17;7.70;;;6.90;;
13753;SDS011;6948;51.216;6.778;2022-09-13T05:50:46;8.60;;;6.67;;
13753;SDS011;6948;51.216;6.778;2022-09-13T05:53:12;8.80;;;6.47;;
13753;SDS011;6948;51.216;6.778;2022-09-13T05:55:38;9.63;;;6.70;;
13753;SDS011;6948;51.216;6.778;2022-09-13T05:58:04;9.23;;;6.33;;
13753;SDS011;6948;51.216;6.778;2022-09-13T06:00:30;9.23;;;7.50;;
13753;SDS011;6948;51.216;6.778;2022-09-13T06:02:57;10.20;;;6.83;;
13753;SDS011;6948;51.216;6.778;2022-09-13T06:05:23;7.37;;;6.27;;
13753;SDS011;6948;51.216;6.778;2022-09-13T06:07:49;6.93;;;6.13;;
13753;SDS011;6948;51.216;6.778;2022-09-13T06:10:15;7.63;;;6.80;;
13753;SDS011;6948;51.216;6.778;2022-09-13T06:12:41;7.23;;;6.53;;
13753;SDS011;6948;51.216;6.778;2022-09-13T06:15:07;11.73;;;6.43;;
13753;SDS011;6948;51.216;6.778;2022-09-13T06:17:35;9.87;;;7.10;;
13753;SDS011;6948;51.216;6.778;2022-09-13T06:20:01;7.53;;;6.47;;
13753;SDS011;6948;51.216;6.778;2022-09-13T06:22:27;8.63;;;7.23;;
13753;SDS011;6948;51.216;6.778;2022-09-13T06:24:57;10.53;;;7.93;;
13753;SDS011;6948;51.216;6.778;2022-09-13T06:27:23;9.37;;;7.33;;
13753;SDS011;6948;51.216;6.778;2022-09-13T06:29:49;8.60;;;6.57;;
13753;SDS011;6948;51.216;6.778;2022-09-13T06:32:15;8.23;;;6.50;;
13753;SDS011;6948;51.216;6.778;2022-09-13T06:34:41;7.83;;;6.80;;
13753;SDS011;6948;51.216;6.778;2022-09-13T06:37:07;7.80;;;7.00;;
13753;SDS011;6948;51.216;6.778;2022-09-13T06:39:36;8.27;;;6.60;;
13753;SDS011;6948;51.216;6.778;2022-09-13T06:42:06;11.50;;;6.80;;
13753;SDS011;6948;51.216;6.778;2022-09-13T06:44:32;8.50;;;6.40;;
13753;SDS011;6948;51.216;6.778;2022-09-13T06:46:58;7.33;;;6.43;;
13753;SDS011;6948;51.216;6.778;2022-09-13T06:49:24;7.37;;;6.10;;
13753;SDS011;6948;51.216;6.778;2022-09-13T06:51:50;7.23;;;6.27;;
13753;SDS011;6948;51.216;6.778;2022-09-13T06:54:16;12.23;;;6.47;;
13753;SDS011;6948;51.216;6.778;2022-09-13T06:56:42;9.20;;;6.93;;
13753;SDS011;6948;51.216;6.778;2022-09-13T06:59:08;10.50;;;6.17;;
13753;SDS011;6948;51.216;6.778;2022-09-13T07:01:36;7.70;;;6.50;;
13753;SDS011;6948;51.216;6.778;2022-09-13T07:04:04;10.90;;;6.73;;
13753;SDS011;6948;51.216;6.778;2022-09-13T07:06:31;7.87;;;6.10;;
13753;SDS011;6948;51.216;6.778;2022-09-13T07:08:59;8.60;;;7.20;;
13753;SDS011;6948;51.216;6.778;2022-09-13T07:11:30;10.43;;;7.17;;
13753;SDS011;6948;51.216;6.778;2022-09-13T07:13:59;9.00;;;6.20;;
13753;SDS011;6948;51.216;6.778;2022-09-13T07:16:26;7.63;;;6.03;;
13753;SDS011;6948;51.216;6.778;2022-09-13T07:18:54;8.43;;;5.90;;
13753;SDS011;6948;51.216;6.778;2022-09-13T07:21:20;9.43;;;5.47;;
13753;SDS011;6948;51.216;6.778;2022-09-13T07:23:47;7.40;;;6.10;;
13753;SDS011;6948;51.216;6.778;2022-09-13T07:26:13;12.37;;;6.67;;
13753;SDS011;6948;51.216;6.778;2022-09-13T07:28:40;9.77;;;7.00;;
13753;SDS011;6948;51.216;6.778;2022-09-13T07:31:08;8.40;;;6.90;;
13753;SDS011;6948;51.216;6.778;2022-09-13T07:33:35;9.43;;;6.67;;
13753;SDS011;6948;51.216;6.778;2022-09-13T07:36:01;9.10;;;6.90;;
13753;SDS011;6948;51.216;6.778;2022-09-13T07:38:30;9.40;;;6.97;;
13753;SDS011;6948;51.216;6.778;2022-09-13T07:40:57;7.67;;;6.17;;
13753;SDS011;6948;51.216;6.778;2022-09-13T07:43:24;9.63;;;6.90;;
13753;SDS011;6948;51.216;6.778;2022-09-13T07:45:58;8.20;;;6.00;;
13753;SDS011;6948;51.216;6.778;2022-09-13T07:48:25;6.80;;;6.10;;
13753;SDS011;6948;51.216;6.778;2022-09-13T07:50:56;8.50;;;5.83;;
13753;SDS011;6948;51.216;6.778;2022-09-13T07:53:22;6.67;;;5.97;;
13753;SDS011;6948;51.216;6.778;2022-09-13T07:55:48;6.80;;;5.67;;
13753;SDS011;6948;51.216;6.778;2022-09-13T07:58:14;9.27;;;6.27;;
13753;SDS011;6948;51.216;6.778;2022-09-13T08:00:40;8.30;;;5.90;;
13753;SDS011;6948;51.216;6.778;2022-09-13T08:03:06;7.50;;;6.10;;
13753;SDS011;6948;51.216;6.778;2022-09-13T08:05:37;8.93;;;6.40;;
13753;SDS011;6948;51.216;6.778;2022-09-13T08:08:03;7.80;;;6.40;;
13753;SDS011;6948;51.216;6.778;2022-09-13T08:10:31;7.13;;;5.60;;
13753;SDS011;6948;51.216;6.778;2022-09-13T08:12:57;8.80;;;6.17;;
13753;SDS011;6948;51.216;6.778;2022-09-13T08:15:23;10.40;;;6.00;;
13753;SDS011;6948;51.216;6.778;2022-09-13T08:17:49;11.83;;;6.20;;
13753;SDS011;6948;51.216;6.778;2022-09-13T08:20:15;11.27;;;5.93;;
13753;SDS011;6948;51.216;6.778;2022-09-13T08:22:41;9.20;;;5.90;;
13753;SDS011;6948;51.216;6.778;2022-09-13T08:25:08;9.70;;;5.67;;
13753;SDS011;6948;51.216;6.778;2022-09-13T08:27:34;8.47;;;5.50;;
13753;SDS011;6948;51.216;6.778;2022-09-13T08:30:00;6.17;;;5.57;;
13753;SDS011;6948;51.216;6.778;2022-09-13T08:32:29;8.13;;;5.63;;
13753;SDS011;6948;51.216;6.778;2022-09-13T08:34:55;7.43;;;5.40;;
13753;SDS011;6948;51.216;6.778;2022-09-13T08:37:21;10.90;;;5.87;;
13753;SDS011;6948;51.216;6.778;2022-09-13T08:39:48;8.20;;;5.50;;
13753;SDS011;6948;51.216;6.778;2022-09-13T08:42:18;6.23;;;5.37;;
13753;SDS011;6948;51.216;6.778;2022-09-13T08:44:47;7.60;;;5.30;;
13753;SDS011;6948;51.216;6.778;2022-09-13T08:50:05;7.93;;;4.70;;
13753;SDS011;6948;51.216;6.778;2022-09-13T08:52:39;7.07;;;5.00;;
13753;SDS011;6948;51.216;6.778;2022-09-13T09:00:43;7.87;;;4.50;;
13753;SDS011;6948;51.216;6.778;2022-09-13T09:05:52;5.87;;;4.50;;
13753;SDS011;6948;51.216;6.778;2022-09-13T09:08:24;9.57;;;4.87;;
13753;SDS011;6948;51.216;6.778;2022-09-13T09:10:53;7.93;;;5.00;;
13753;SDS011;6948;51.216;6.778;2022-09-13T09:13:29;7.77;;;4.60;;
13753;SDS011;6948;51.216;6.778;2022-09-13T09:15:58;8.00;;;5.00;;
13753;SDS011;6948;51.216;6.778;2022-09-13T09:18:28;6.60;;;4.97;;
13753;SDS011;6948;51.216;6.778;2022-09-13T09:20:56;7.00;;;5.40;;
13753;SDS011;6948;51.216;6.778;2022-09-13T09:23:25;7.80;;;5.33;;
13753;SDS011;6948;51.216;6.778;2022-09-13T09:26:11;10.13;;;7.23;;
13753;SDS011;6948;51.216;6.778;2022-09-13T09:28:38;9.13;;;6.50;;
13753;SDS011;6948;51.216;6.778;2022-09-13T09:31:13;7.60;;;5.03;;
13753;SDS011;6948;51.216;6.778;2022-09-13T09:33:45;12.38;;;5.45;;
13753;SDS011;6948;51.216;6.778;2022-09-13T09:38:51;8.93;;;5.53;;
13753;SDS011;6948;51.216;6.778;2022-09-13T09:41:34;8.80;;;6.18;;
13753;SDS011;6948;51.216;6.778;2022-09-13T09:44:18;10.30;;;5.80;;
13753;SDS011;6948;51.216;6.778;2022-09-13T09:49:32;10.37;;;5.80;;
13753;SDS011;6948;51.216;6.778;2022-09-13T09:52:21;8.02;;;5.70;;
13753;SDS011;6948;51.216;6.778;2022-09-13T09:54:52;11.82;;;5.78;;
13753;SDS011;6948;51.216;6.778;2022-09-13T09:57:20;7.57;;;5.43;;
13753;SDS011;6948;51.216;6.778;2022-09-13T09:59:47;7.18;;;5.13;;
13753;SDS011;6948;51.216;6.778;2022-09-13T10:02:17;6.47;;;5.03;;
13753;SDS011;6948;51.216;6.778;2022-09-13T10:04:54;9.93;;;4.97;;
13753;SDS011;6948;51.216;6.778;2022-09-13T10:10:04;8.35;;;5.05;;
13753;SDS011;6948;51.216;6.778;2022-09-13T10:12:33;8.40;;;4.70;;
13753;SDS011;6948;51.216;6.778;2022-09-13T10:15:02;9.02;;;5.68;;
13753;SDS011;6948;51.216;6.778;2022-09-13T10:17:29;11.35;;;6.22;;
13753;SDS011;6948;51.216;6.778;2022-09-13T10:22:33;10.88;;;5.70;;
13753;SDS011;6948;51.216;6.778;2022-09-13T10:27:48;11.10;;;6.00;;
13753;SDS011;6948;51.216;6.778;2022-09-13T10:30:25;12.52;;;5.68;;
13753;SDS011;6948;51.216;6.778;2022-09-13T10:32:55;8.95;;;5.13;;
13753;SDS011;6948;51.216;6.778;2022-09-13T10:35:22;9.88;;;6.38;;
13753;SDS011;6948;51.216;6.778;2022-09-13T10:37:48;6.95;;;5.45;;
13753;SDS011;6948;51.216;6.778;2022-09-13T10:40:17;8.23;;;5.30;;
13753;SDS011;6948;51.216;6.778;2022-09-13T10:42:52;7.22;;;5.10;;
13753;SDS011;6948;51.216;6.778;2022-09-13T10:45:21;8.65;;;4.90;;
13753;SDS011;6948;51.216;6.778;2022-09-13T10:47:48;9.57;;;5.07;;
13753;SDS011;6948;51.216;6.778;2022-09-13T10:50:22;10.27;;;4.82;;
13753;SDS011;6948;51.216;6.778;2022-09-13T10:52:49;8.30;;;4.95;;
13753;SDS011;6948;51.216;6.778;2022-09-13T10:58:09;8.57;;;4.45;;
13753;SDS011;6948;51.216;6.778;2022-09-13T11:03:19;8.25;;;3.95;;
13753;SDS011;6948;51.216;6.778;2022-09-13T11:08:29;7.78;;;4.60;;
13753;SDS011;6948;51.216;6.778;2022-09-13T11:13:50;8.35;;;4.75;;
13753;SDS011;6948;51.216;6.778;2022-09-13T11:21:52;6.32;;;4.50;;
13753;SDS011;6948;51.216;6.778;2022-09-13T11:27:03;9.15;;;4.30;;
13753;SDS011;6948;51.216;6.778;2022-09-13T11:40:43;8.65;;;4.95;;
13753;SDS011;6948;51.216;6.778;2022-09-13T11:46:09;5.97;;;4.60;;
13753;SDS011;6948;51.216;6.778;2022-09-13T11:54:01;6.43;;;3.90;;
13753;SDS011;6948;51.216;6.778;2022-09-13T11:56:32;8.70;;;3.92;;
13753;SDS011;6948;51.216;6.778;2022-09-13T12:01:53;8.63;;;3.90;;
13753;SDS011;6948;51.216;6.778;2022-09-13T12:04:32;5.85;;;3.88;;
13753;SDS011;6948;51.216;6.778;2022-09-13T12:07:00;5.30;;;4.60;;
13753;SDS011;6948;51.216;6.778;2022-09-13T12:09:29;6.47;;;4.93;;
13753;SDS011;6948;51.216;6.778;2022-09-13T12:12:06;6.97;;;4.97;;
13753;SDS011;6948;51.216;6.778;2022-09-13T12:14:40;6.78;;;4.53;;
13753;SDS011;6948;51.216;6.778;2022-09-13T12:17:11;6.10;;;4.05;;
13753;SDS011;6948;51.216;6.778;2022-09-13T12:19:42;6.03;;;4.82;;
13753;SDS011;6948;51.216;6.778;2022-09-13T12:22:09;7.40;;;5.10;;
13753;SDS011;6948;51.216;6.778;2022-09-13T12:24:46;7.15;;;4.20;;
13753;SDS011;6948;51.216;6.778;2022-09-13T12:32:51;6.68;;;3.70;;
13753;SDS011;6948;51.216;6.778;2022-09-13T12:38:03;7.55;;;3.85;;
13753;SDS011;6948;51.216;6.778;2022-09-13T13:05:05;7.43;;;4.35;;
13753;SDS011;6948;51.216;6.778;2022-09-13T13:07:33;4.78;;;3.20;;
13753;SDS011;6948;51.216;6.778;2022-09-13T13:10:00;5.30;;;3.22;;
13753;SDS011;6948;51.216;6.778;2022-09-13T13:17:51;7.55;;;4.68;;
13753;SDS011;6948;51.216;6.778;2022-09-13T13:23:12;5.07;;;3.58;;
13753;SDS011;6948;51.216;6.778;2022-09-13T13:25:53;6.60;;;4.40;;
13753;SDS011;6948;51.216;6.778;2022-09-13T13:31:06;7.25;;;4.40;;
13753;SDS011;6948;51.216;6.778;2022-09-13T13:33:41;8.50;;;5.00;;
13753;SDS011;6948;51.216;6.778;2022-09-13T13:36:27;6.25;;;3.97;;
13753;SDS011;6948;51.216;6.778;2022-09-13T13:38:55;9.32;;;4.72;;
13753;SDS011;6948;51.216;6.778;2022-09-13T13:49:51;7.28;;;5.07;;
13753;SDS011;6948;51.216;6.778;2022-09-13T13:54:57;8.82;;;3.90;;
13753;SDS011;6948;51.216;6.778;2022-09-13T14:00:05;6.53;;;3.92;;
13753;SDS011;6948;51.216;6.778;2022-09-13T14:19:15;7.75;;;4.57;;
13753;SDS011;6948;51.216;6.778;2022-09-13T14:21:43;7.80;;;4.45;;
13753;SDS011;6948;51.216;6.778;2022-09-13T14:24:18;7.75;;;3.97;;
13753;SDS011;6948;51.216;6.778;2022-09-13T14:26:45;6.45;;;3.35;;
13753;SDS011;6948;51.216;6.778;2022-09-13T14:29:12;6.80;;;3.50;;
13753;SDS011;6948;51.216;6.778;2022-09-13T14:31:43;4.90;;;3.10;;
13753;SDS011;6948;51.216;6.778;2022-09-13T14:34:18;4.90;;;3.15;;
13753;SDS011;6948;51.216;6.778;2022-09-13T14:36:53;4.63;;;2.60;;
13753;SDS011;6948;51.216;6.778;2022-09-13T14:39:19;3.05;;;2.50;;
13753;SDS011;6948;51.216;6.778;2022-09-13T14:41:46;4.15;;;3.05;;
13753;SDS011;6948;51.216;6.778;2022-09-13T14:44:20;5.78;;;3.10;;
13753;SDS011;6948;51.216;6.778;2022-09-13T14:46:48;4.20;;;2.60;;
13753;SDS011;6948;51.216;6.778;2022-09-13T14:49:22;3.58;;;2.75;;
13753;SDS011;6948;51.216;6.778;2022-09-13T14:51:51;3.92;;;2.97;;
13753;SDS011;6948;51.216;6.778;2022-09-13T14:54:36;3.70;;;2.90;;
13753;SDS011;6948;51.216;6.778;2022-09-13T14:57:04;3.38;;;2.58;;
13753;SDS011;6948;51.216;6.778;2022-09-13T14:59:34;4.20;;;2.70;;
13753;SDS011;6948;51.216;6.778;2022-09-13T15:04:49;3.42;;;2.55;;
13753;SDS011;6948;51.216;6.778;2022-09-13T15:07:19;4.88;;;2.72;;
13753;SDS011;6948;51.216;6.778;2022-09-13T15:09:46;5.95;;;3.00;;
13753;SDS011;6948;51.216;6.778;2022-09-13T15:12:28;5.35;;;2.65;;
13753;SDS011;6948;51.216;6.778;2022-09-13T15:17:57;6.05;;;3.03;;
13753;SDS011;6948;51.216;6.778;2022-09-13T15:20:24;4.35;;;2.80;;
13753;SDS011;6948;51.216;6.778;2022-09-13T15:22:51;5.05;;;2.80;;
13753;SDS011;6948;51.216;6.778;2022-09-13T15:25:26;4.35;;;2.90;;
13753;SDS011;6948;51.216;6.778;2022-09-13T15:27:54;5.18;;;3.03;;
13753;SDS011;6948;51.216;6.778;2022-09-13T15:30:22;5.13;;;2.80;;
13753;SDS011;6948;51.216;6.778;2022-09-13T15:32:49;4.65;;;3.17;;
13753;SDS011;6948;51.216;6.778;2022-09-13T15:35:29;6.57;;;3.30;;
13753;SDS011;6948;51.216;6.778;2022-09-13T15:38:00;5.78;;;3.30;;
13753;SDS011;6948;51.216;6.778;2022-09-13T15:40:27;5.57;;;3.20;;
13753;SDS011;6948;51.216;6.778;2022-09-13T15:42:53;6.32;;;3.45;;
13753;SDS011;6948;51.216;6.778;2022-09-13T15:45:20;4.90;;;3.22;;
13753;SDS011;6948;51.216;6.778;2022-09-13T15:47:47;5.88;;;3.20;;
13753;SDS011;6948;51.216;6.778;2022-09-13T15:50:17;5.63;;;3.17;;
13753;SDS011;6948;51.216;6.778;2022-09-13T15:52:44;4.05;;;2.78;;
13753;SDS011;6948;51.216;6.778;2022-09-13T15:55:10;6.70;;;2.95;;
13753;SDS011;6948;51.216;6.778;2022-09-13T15:57:36;6.43;;;3.15;;
13753;SDS011;6948;51.216;6.778;2022-09-13T16:00:02;3.92;;;2.80;;
13753;SDS011;6948;51.216;6.778;2022-09-13T16:02:30;3.03;;;2.58;;
13753;SDS011;6948;51.216;6.778;2022-09-13T16:04:57;3.47;;;2.63;;
13753;SDS011;6948;51.216;6.778;2022-09-13T16:07:23;4.38;;;3.28;;
13753;SDS011;6948;51.216;6.778;2022-09-13T16:09:50;6.20;;;3.67;;
13753;SDS011;6948;51.216;6.778;2022-09-13T16:12:17;6.13;;;3.45;;
13753;SDS011;6948;51.216;6.778;2022-09-13T16:14:43;6.43;;;4.78;;
13753;SDS011;6948;51.216;6.778;2022-09-13T16:17:11;5.07;;;3.88;;
13753;SDS011;6948;51.216;6.778;2022-09-13T16:19:38;5.97;;;4.20;;
13753;SDS011;6948;51.216;6.778;2022-09-13T16:22:05;8.82;;;3.92;;
13753;SDS011;6948;51.216;6.778;2022-09-13T16:24:31;7.57;;;4.05;;
13753;SDS011;6948;51.216;6.778;2022-09-13T16:26:58;7.32;;;4.30;;
13753;SDS011;6948;51.216;6.778;2022-09-13T16:29:25;7.82;;;5.18;;
13753;SDS011;6948;51.216;6.778;2022-09-13T16:31:51;7.15;;;5.03;;
13753;SDS011;6948;51.216;6.778;2022-09-13T16:34:17;8.55;;;5.45;;
13753;SDS011;6948;51.216;6.778;2022-09-13T16:36:44;8.20;;;5.60;;
13753;SDS011;6948;51.216;6.778;2022-09-13T16:39:10;7.43;;;5.53;;
13753;SDS011;6948;51.216;6.778;2022-09-13T16:41:37;9.63;;;5.60;;
13753;SDS011;6948;51.216;6.778;2022-09-13T16:44:04;7.55;;;4.97;;
13753;SDS011;6948;51.216;6.778;2022-09-13T16:46:30;8.15;;;5.20;;
13753;SDS011;6948;51.216;6.778;2022-09-13T16:48:56;6.80;;;5.22;;
13753;SDS011;6948;51.216;6.778;2022-09-13T16:51:23;8.50;;;5.65;;
13753;SDS011;6948;51.216;6.778;2022-09-13T16:53:49;8.82;;;6.10;;
13753;SDS011;6948;51.216;6.778;2022-09-13T16:56:16;9.88;;;6.80;;
13753;SDS011;6948;51.216;6.778;2022-09-13T16:58:43;8.20;;;6.40;;
13753;SDS011;6948;51.216;6.778;2022-09-13T17:01:11;11.77;;;7.00;;
13753;SDS011;6948;51.216;6.778;2022-09-13T17:03:37;12.05;;;7.20;;
13753;SDS011;6948;51.216;6.778;2022-09-13T17:06:05;9.65;;;7.55;;
13753;SDS011;6948;51.216;6.778;2022-09-13T17:08:32;10.50;;;7.85;;
13753;SDS011;6948;51.216;6.778;2022-09-13T17:10:58;9.32;;;7.55;;
13753;SDS011;6948;51.216;6.778;2022-09-13T17:13:25;11.88;;;8.00;;
13753;SDS011;6948;51.216;6.778;2022-09-13T17:15:51;10.88;;;7.85;;
13753;SDS011;6948;51.216;6.778;2022-09-13T17:18:17;10.57;;;7.88;;
13753;SDS011;6948;51.216;6.778;2022-09-13T17:20:44;12.75;;;8.85;;
13753;SDS011;6948;51.216;6.778;2022-09-13T17:23:12;12.20;;;9.20;;
13753;SDS011;6948;51.216;6.778;2022-09-13T17:25:40;10.18;;;8.50;;
13753;SDS011;6948;51.216;6.778;2022-09-13T17:28:10;11.97;;;8.73;;
13753;SDS011;6948;51.216;6.778;2022-09-13T17:30:36;12.48;;;9.93;;
13753;SDS011;6948;51.216;6.778;2022-09-13T17:33:02;9.50;;;8.50;;
13753;SDS011;6948;51.216;6.778;2022-09-13T17:35:30;12.53;;;8.87;;
13753;SDS011;6948;51.216;6.778;2022-09-13T17:37:57;14.98;;;9.65;;
13753;SDS011;6948;51.216;6.778;2022-09-13T17:40:24;20.27;;;9.40;;
13753;SDS011;6948;51.216;6.778;2022-09-13T17:42:50;11.98;;;9.57;;
13753;SDS011;6948;51.216;6.778;2022-09-13T17:45:16;12.93;;;9.27;;
13753;SDS011;6948;51.216;6.778;2022-09-13T17:47:42;14.60;;;11.43;;
13753;SDS011;6948;51.216;6.778;2022-09-13T17:50:08;10.90;;;9.30;;
13753;SDS011;6948;51.216;6.778;2022-09-13T17:52:34;10.60;;;9.60;;
13753;SDS011;6948;51.216;6.778;2022-09-13T17:55:01;13.70;;;10.48;;
13753;SDS011;6948;51.216;6.778;2022-09-13T17:57:27;17.45;;;11.52;;
13753;SDS011;6948;51.216;6.778;2022-09-13T17:59:53;12.98;;;11.65;;
13753;SDS011;6948;51.216;6.778;2022-09-13T18:02:19;14.85;;;12.25;;
13753;SDS011;6948;51.216;6.778;2022-09-13T18:04:46;11.18;;;10.13;;
13753;SDS011;6948;51.216;6.778;2022-09-13T18:07:12;15.85;;;11.48;;
13753;SDS011;6948;51.216;6.778;2022-09-13T18:09:38;13.38;;;12.00;;
13753;SDS011;6948;51.216;6.778;2022-09-13T18:12:05;15.75;;;12.20;;
13753;SDS011;6948;51.216;6.778;2022-09-13T18:14:31;13.13;;;11.35;;
13753;SDS011;6948;51.216;6.778;2022-09-13T18:16:57;12.10;;;10.95;;
13753;SDS011;6948;51.216;6.778;2022-09-13T18:19:23;15.03;;;11.10;;
13753;SDS011;6948;51.216;6.778;2022-09-13T18:21:50;14.52;;;11.30;;
13753;SDS011;6948;51.216;6.778;2022-09-13T18:24:16;12.20;;;11.00;;
13753;SDS011;6948;51.216;6.778;2022-09-13T18:26:42;13.80;;;10.43;;
13753;SDS011;6948;51.216;6.778;2022-09-13T18:29:09;14.77;;;11.82;;